Time;durP1;ratioP1;P1;durP2;ratioP2;P2;SDS_P1;SDS_P2;PMS_P1;PMS_P2;Temp;Humidity;BMP_temperature;BMP_pressure;BME280_temperature;BME280_humidity;BME280_pressure;Samples;Min_cycle;Max_cycle;Signal;HPM_P1;HPM_P2
2022/07/23 00:01:42;;;;;;;7.17;6.47;;;24.70;53.50;;;;;;5001375;28;20462;-94
2022/07/23 00:04:10;;;;;;;6.10;5.60;;;24.70;53.40;;;;;;4993174;28;20495;-95
2022/07/23 00:06:40;;;;;;;6.33;5.80;;;24.70;53.40;;;;;;5000875;28;20465;-94
2022/07/23 00:09:09;;;;;;;7.20;6.60;;;24.70;53.50;;;;;;4993353;28;20530;-95
2022/07/23 00:11:38;;;;;;;7.60;6.87;;;24.70;53.50;;;;;;4996447;28;20464;-94
2022/07/23 00:14:06;;;;;;;6.67;6.13;;;24.70;53.50;;;;;;4996005;28;20452;-94
2022/07/23 00:16:34;;;;;;;6.60;6.10;;;24.70;53.40;;;;;;4995735;28;20457;-94
2022/07/23 00:19:03;;;;;;;6.30;5.80;;;24.70;53.50;;;;;;4986132;28;20473;-94
2022/07/23 00:21:32;;;;;;;6.17;5.67;;;24.70;53.50;;;;;;4993204;28;20458;-94
2022/07/23 00:24:02;;;;;;;6.47;5.97;;;24.70;53.50;;;;;;4993427;28;20448;-94
2022/07/23 00:26:30;;;;;;;6.20;5.70;;;24.70;53.50;;;;;;5002274;28;20468;-94
2022/07/23 00:28:58;;;;;;;5.97;5.57;;;24.70;53.50;;;;;;4993269;28;20970;-95
2022/07/23 00:31:27;;;;;;;6.17;5.57;;;24.70;53.50;;;;;;4970663;28;20594;-94
2022/07/23 00:33:57;;;;;;;6.70;6.10;;;24.70;53.60;;;;;;4975696;28;20512;-94
2022/07/23 00:36:25;;;;;;;6.90;6.30;;;24.70;53.50;;;;;;4976890;28;20477;-94
2022/07/23 00:38:53;;;;;;;7.00;6.40;;;24.70;53.60;;;;;;4976003;28;20618;-94
2022/07/23 00:41:23;;;;;;;6.53;6.03;;;24.70;53.60;;;;;;4982898;28;20523;-95
2022/07/23 00:43:52;;;;;;;5.97;5.47;;;24.70;53.70;;;;;;4993789;28;20441;-94
2022/07/23 00:46:21;;;;;;;6.00;5.50;;;24.70;53.70;;;;;;4988830;28;20489;-94
2022/07/23 00:48:49;;;;;;;6.47;5.97;;;24.70;53.60;;;;;;4987104;28;20437;-95
2022/07/23 00:51:18;;;;;;;5.90;5.40;;;24.70;53.60;;;;;;5000157;28;20457;-94
2022/07/23 00:53:47;;;;;;;6.33;5.83;;;24.70;53.50;;;;;;4987750;28;20496;-94
2022/07/23 00:56:15;;;;;;;6.20;5.67;;;24.70;53.70;;;;;;5012348;28;20457;-95
2022/07/23 00:58:46;;;;;;;5.40;5.00;;;24.70;53.60;;;;;;4993674;28;20504;-94
2022/07/23 01:01:14;;;;;;;6.80;6.20;;;24.70;53.60;;;;;;5012398;28;20463;-94
2022/07/23 01:03:43;;;;;;;5.83;5.33;;;24.70;53.60;;;;;;4993117;28;20923;-95
2022/07/23 01:06:11;;;;;;;5.87;5.37;;;24.60;53.50;;;;;;4987306;28;20468;-96
2022/07/23 01:08:40;;;;;;;6.13;5.70;;;24.70;53.60;;;;;;4995584;28;20440;-94
2022/07/23 01:11:09;;;;;;;6.20;5.70;;;24.70;53.60;;;;;;5000589;28;20489;-94
2022/07/23 01:13:41;;;;;;;5.93;5.43;;;24.60;53.50;;;;;;4987043;28;20464;-94
2022/07/23 01:16:11;;;;;;;5.63;5.23;;;24.60;53.50;;;;;;5004873;28;20460;-94
2022/07/23 01:18:40;;;;;;;6.23;5.63;;;24.60;53.50;;;;;;5003402;28;20798;-94
2022/07/23 01:21:10;;;;;;;5.67;5.20;;;24.60;53.60;;;;;;4983455;28;20484;-95
2022/07/23 01:23:41;;;;;;;5.70;5.20;;;24.60;54.80;;;;;;4991682;28;20457;-95
2022/07/23 01:26:09;;;;;;;6.23;5.73;;;24.60;53.60;;;;;;4988178;28;20488;-95
2022/07/23 01:28:39;;;;;;;5.07;4.63;;;24.60;53.50;;;;;;4987567;28;20446;-95
2022/07/23 01:31:07;;;;;;;6.40;5.80;;;24.60;53.50;;;;;;4993047;28;20464;-93
2022/07/23 01:33:39;;;;;;;5.57;5.17;;;24.60;53.50;;;;;;5011882;28;20465;-95
2022/07/23 01:36:09;;;;;;;5.50;5.10;;;24.60;53.50;;;;;;4990610;28;20473;-93
2022/07/23 01:38:37;;;;;;;5.20;4.80;;;24.60;53.50;;;;;;4988842;28;20445;-94
2022/07/23 01:41:07;;;;;;;5.57;5.07;;;24.60;53.50;;;;;;4987419;28;20518;-95
2022/07/23 01:43:35;;;;;;;6.07;5.60;;;24.60;53.50;;;;;;4993638;28;20456;-94
2022/07/23 01:46:05;;;;;;;5.90;5.40;;;24.60;53.50;;;;;;4991829;28;20485;-94
2022/07/23 01:48:39;;;;;;;5.93;5.33;;;24.60;53.50;;;;;;4975909;28;20480;-94
2022/07/23 01:51:26;;;;;;;5.63;5.13;;;24.60;53.50;;;;;;4989595;28;20470;-94
2022/07/23 01:54:01;;;;;;;5.90;5.40;;;24.60;53.60;;;;;;4982508;28;20461;-94
2022/07/23 01:56:30;;;;;;;5.87;5.47;;;24.60;53.50;;;;;;4968566;28;20474;-94
2022/07/23 01:58:59;;;;;;;4.90;4.50;;;24.60;53.50;;;;;;4984716;28;20460;-94
2022/07/23 02:01:28;;;;;;;5.73;5.33;;;24.60;53.50;;;;;;4988188;28;20471;-94
2022/07/23 02:03:57;;;;;;;5.10;4.70;;;24.60;53.50;;;;;;4975103;28;20533;-95
2022/07/23 02:06:25;;;;;;;5.43;5.03;;;24.60;53.50;;;;;;4990665;28;20486;-94
2022/07/23 02:08:53;;;;;;;4.87;4.47;;;24.60;53.50;;;;;;4975086;28;20439;-94
2022/07/23 02:11:23;;;;;;;5.57;5.07;;;24.60;53.50;;;;;;4974408;28;20828;-94
2022/07/23 02:13:53;;;;;;;5.10;4.70;;;24.60;53.50;;;;;;4976166;28;20462;-94
2022/07/23 02:16:22;;;;;;;5.00;4.60;;;24.60;53.60;;;;;;4969394;28;20472;-94
2022/07/23 02:18:50;;;;;;;5.83;5.33;;;24.50;53.50;;;;;;4977485;28;20446;-95
2022/07/23 02:21:19;;;;;;;5.77;5.27;;;24.50;53.50;;;;;;4968538;28;20470;-94
2022/07/23 02:23:47;;;;;;;5.83;5.33;;;24.50;53.50;;;;;;5009161;28;20851;-95
2022/07/23 02:26:15;;;;;;;5.10;4.70;;;24.50;53.50;;;;;;4991228;28;20453;-95
2022/07/23 02:28:52;;;;;;;4.53;4.23;;;24.50;53.50;;;;;;4967930;28;20980;-94
2022/07/23 02:31:21;;;;;;;5.37;4.97;;;24.60;53.50;;;;;;4989782;28;20464;-95
2022/07/23 02:33:49;;;;;;;4.60;4.27;;;24.50;53.50;;;;;;5022627;23;20932;-47
2022/07/23 02:36:18;;;;;;;4.40;4.10;;;24.50;53.50;;;;;;4976139;28;20554;-48
2022/07/23 02:38:47;;;;;;;5.23;4.73;;;24.50;53.50;;;;;;4959591;28;20435;-48
2022/07/23 02:41:16;;;;;;;5.20;4.80;;;24.50;53.50;;;;;;4969442;28;20477;-47
2022/07/23 02:43:44;;;;;;;5.07;4.67;;;24.50;53.50;;;;;;4977063;28;20427;-51
2022/07/23 02:46:15;;;;;;;5.90;5.40;;;24.50;53.50;;;;;;4961379;28;20491;-48
2022/07/23 02:48:44;;;;;;;5.60;5.10;;;24.50;53.50;;;;;;4984138;28;20462;-48
2022/07/23 02:51:13;;;;;;;6.27;5.77;;;24.50;53.50;;;;;;4978524;28;21006;-49
2022/07/23 02:53:48;;;;;;;5.40;4.90;;;24.50;53.50;;;;;;4985276;28;20451;-47
2022/07/23 02:56:16;;;;;;;4.00;3.70;;;24.50;53.50;;;;;;4962672;28;20988;-48
2022/07/23 02:58:44;;;;;;;4.97;4.57;;;24.50;53.50;;;;;;4985652;28;20478;-49
2022/07/23 03:01:16;;;;;;;5.57;5.17;;;24.50;53.50;;;;;;4966975;28;21004;-47
2022/07/23 03:03:48;;;;;;;4.83;4.43;;;24.50;53.50;;;;;;4983433;28;20446;-47
2022/07/23 03:06:16;;;;;;;4.93;4.50;;;24.50;53.50;;;;;;4955924;28;20467;-47
2022/07/23 03:08:45;;;;;;;4.93;4.53;;;24.50;53.50;;;;;;4963161;28;20625;-48
2022/07/23 03:11:13;;;;;;;5.23;4.73;;;24.50;53.50;;;;;;4980074;28;20463;-48
2022/07/23 03:13:44;;;;;;;4.50;4.10;;;24.50;53.40;;;;;;4967743;28;20458;-47
2022/07/23 03:16:15;;;;;;;4.70;4.40;;;24.50;53.50;;;;;;4969606;28;21077;-49
2022/07/23 03:18:43;;;;;;;4.87;4.47;;;24.40;53.40;;;;;;4963504;28;20459;-48
2022/07/23 03:21:13;;;;;;;4.53;4.13;;;24.40;53.40;;;;;;4957196;28;20530;-50
2022/07/23 03:23:41;;;;;;;4.30;4.00;;;24.50;53.50;;;;;;4963204;28;20443;-48
2022/07/23 03:26:09;;;;;;;4.40;4.10;;;24.40;53.40;;;;;;4981392;28;20463;-49
2022/07/23 03:28:37;;;;;;;5.00;4.60;;;24.50;53.50;;;;;;4977747;28;20454;-49
2022/07/23 03:31:06;;;;;;;4.33;4.03;;;24.40;53.40;;;;;;4963591;28;20483;-45
2022/07/23 03:33:36;;;;;;;4.93;4.53;;;24.40;53.40;;;;;;4969759;28;20513;-50
2022/07/23 03:36:05;;;;;;;4.57;4.27;;;24.40;53.40;;;;;;4967572;28;20838;-46
2022/07/23 03:38:40;;;;;;;5.17;4.77;;;24.40;53.50;;;;;;4978582;28;20449;-47
2022/07/23 03:41:08;;;;;;;4.80;4.50;;;24.40;53.40;;;;;;4962005;28;20501;-47
2022/07/23 03:43:37;;;;;;;4.60;4.20;;;24.40;53.40;;;;;;4983035;28;20985;-46
2022/07/23 03:46:05;;;;;;;4.87;4.50;;;24.40;53.40;;;;;;4983654;28;20515;-48
2022/07/23 03:48:36;;;;;;;5.70;5.30;;;24.40;53.40;;;;;;5006515;28;20445;-48
2022/07/23 03:51:05;;;;;;;4.47;4.17;;;24.40;53.40;;;;;;4988203;28;20853;-47
2022/07/23 03:53:33;;;;;;;3.73;3.43;;;24.40;53.40;;;;;;4975087;28;20434;-46
2022/07/23 03:56:02;;;;;;;4.73;4.33;;;24.40;53.40;;;;;;4988504;28;20978;-47
2022/07/23 03:58:31;;;;;;;4.90;4.50;;;24.40;53.40;;;;;;4989117;28;20517;-47
2022/07/23 04:00:59;;;;;;;4.57;4.17;;;24.40;53.40;;;;;;4990085;28;20506;-46
2022/07/23 04:03:27;;;;;;;4.60;4.20;;;24.40;53.40;;;;;;4998422;28;20437;-47
2022/07/23 04:05:57;;;;;;;5.10;4.70;;;24.30;53.40;;;;;;4980210;28;20541;-47
2022/07/23 04:08:26;;;;;;;4.63;4.30;;;24.40;53.40;;;;;;4983264;28;20457;-47
2022/07/23 04:10:54;;;;;;;4.77;4.37;;;24.30;53.30;;;;;;4998191;28;20450;-46
2022/07/23 04:13:24;;;;;;;4.80;4.40;;;24.30;53.30;;;;;;4992358;28;20433;-49
2022/07/23 04:15:52;;;;;;;4.97;4.47;;;24.30;53.30;;;;;;4983448;28;20519;-48
2022/07/23 04:18:23;;;;;;;4.77;4.37;;;24.30;53.30;;;;;;4993761;28;20808;-48
2022/07/23 04:21:03;;;;;;;3.93;3.53;;;24.30;53.30;;;;;;4996217;28;20543;-47
2022/07/23 04:23:32;;;;;;;4.07;3.77;;;24.30;53.30;;;;;;4997278;28;20445;-46
2022/07/23 04:26:00;;;;;;;4.60;4.20;;;24.30;53.30;;;;;;4991475;28;20422;-49
2022/07/23 04:28:28;;;;;;;4.13;3.83;;;24.30;53.30;;;;;;4991126;28;20541;-48
2022/07/23 04:30:57;;;;;;;4.60;4.20;;;24.30;53.30;;;;;;4985537;28;20431;-48
2022/07/23 04:33:26;;;;;;;4.30;4.00;;;24.30;53.30;;;;;;4993623;28;20435;-48
2022/07/23 04:35:56;;;;;;;5.00;4.60;;;24.30;53.30;;;;;;4982753;28;20552;-48
2022/07/23 04:38:26;;;;;;;4.20;3.90;;;24.30;53.30;;;;;;4987857;28;20439;-48
2022/07/23 04:40:59;;;;;;;4.00;3.70;;;24.30;53.30;;;;;;4983467;28;20812;-47
2022/07/23 04:43:28;;;;;;;4.17;3.87;;;24.30;53.30;;;;;;4984928;28;20504;-47
2022/07/23 04:45:56;;;;;;;4.23;3.93;;;24.30;53.30;;;;;;4984609;28;20894;-46
2022/07/23 04:48:26;;;;;;;4.43;4.13;;;24.30;53.30;;;;;;4986097;28;20921;-47
2022/07/23 04:51:05;;;;;;;3.90;3.60;;;24.30;53.30;;;;;;4984705;28;20564;-48
2022/07/23 04:53:38;;;;;;;4.50;3.97;;;24.30;53.30;;;;;;4991655;28;20438;-50
2022/07/23 04:56:06;;;;;;;4.00;3.70;;;24.30;53.30;;;;;;4985491;28;20516;-47
2022/07/23 04:58:35;;;;;;;4.43;4.03;;;24.30;53.30;;;;;;4988380;28;20906;-49
2022/07/23 05:01:03;;;;;;;4.83;4.43;;;24.30;53.30;;;;;;4989639;28;20470;-48
2022/07/23 05:03:35;;;;;;;4.87;4.47;;;24.30;53.30;;;;;;4980214;28;20517;-49
2022/07/23 05:06:03;;;;;;;3.80;3.50;;;24.30;53.30;;;;;;5001687;28;20446;-47
2022/07/23 05:08:32;;;;;;;4.00;3.70;;;24.20;53.20;;;;;;4996411;28;20457;-47
2022/07/23 05:11:02;;;;;;;3.90;3.60;;;24.20;53.20;;;;;;4972094;28;20431;-49
2022/07/23 05:13:30;;;;;;;4.53;4.13;;;24.20;53.30;;;;;;5001095;28;20445;-47
2022/07/23 05:15:59;;;;;;;4.60;4.27;;;24.20;53.20;;;;;;4985175;28;20482;-49
2022/07/23 05:18:28;;;;;;;3.83;3.53;;;24.20;53.30;;;;;;4996634;28;20433;-48
2022/07/23 05:20:56;;;;;;;4.60;4.30;;;24.20;53.20;;;;;;4983259;28;20957;-48
2022/07/23 05:23:24;;;;;;;4.13;3.83;;;24.20;53.20;;;;;;4976766;28;20442;-48
2022/07/23 05:25:53;;;;;;;4.83;4.43;;;24.30;53.30;;;;;;4991602;28;20521;-47
2022/07/23 05:28:24;;;;;;;4.27;3.87;;;24.20;53.20;;;;;;4990584;28;20458;-47
2022/07/23 05:30:54;;;;;;;4.60;4.20;;;24.20;53.20;;;;;;5006143;28;20508;-48
2022/07/23 05:33:25;;;;;;;3.40;3.10;;;24.20;53.20;;;;;;4980419;28;20886;-50
2022/07/23 05:35:54;;;;;;;4.87;4.47;;;24.20;53.20;;;;;;4971921;28;20474;-47
2022/07/23 05:38:28;;;;;;;3.97;3.67;;;24.20;53.20;;;;;;4980351;28;20442;-47
2022/07/23 05:41:00;;;;;;;3.73;3.43;;;24.20;53.20;;;;;;4981158;28;20501;-47
2022/07/23 05:43:31;;;;;;;3.90;3.60;;;24.20;53.20;;;;;;4970983;28;20447;-48
2022/07/23 05:46:03;;;;;;;3.93;3.63;;;24.20;53.20;;;;;;4977473;28;20912;-48
2022/07/23 05:48:33;;;;;;;4.30;4.00;;;24.20;53.20;;;;;;4999348;28;20589;-47
2022/07/23 05:51:25;;;;;;;4.10;3.80;;;24.20;53.20;;;;;;4970323;28;20559;-48
2022/07/23 05:53:54;;;;;;;3.80;3.50;;;24.20;53.20;;;;;;4991157;28;20454;-47
2022/07/23 05:56:26;;;;;;;4.57;4.17;;;24.20;53.20;;;;;;4984434;28;20887;-47
2022/07/23 05:58:55;;;;;;;3.60;3.13;;;24.20;53.20;;;;;;5001379;28;20450;-46
2022/07/23 06:01:23;;;;;;;3.80;3.57;;;24.20;53.20;;;;;;4983190;28;20801;-46
2022/07/23 06:04:01;;;;;;;4.20;3.73;;;24.10;53.10;;;;;;4973875;28;20437;-48
2022/07/23 06:06:35;;;;;;;3.77;3.47;;;24.10;53.10;;;;;;4979357;28;20476;-47
2022/07/23 06:09:04;;;;;;;4.00;3.67;;;24.10;53.10;;;;;;4983246;28;21305;-49
2022/07/23 06:11:33;;;;;;;6.00;5.40;;;24.10;53.10;;;;;;4981176;28;20821;-47
2022/07/23 06:14:04;;;;;;;9.40;8.20;;;24.10;53.20;;;;;;4981201;28;20861;-46
2022/07/23 06:16:45;;;;;;;11.37;8.93;;;24.10;53.80;;;;;;4980488;28;20839;-46
2022/07/23 06:19:13;;;;;;;9.67;8.67;;;24.10;54.10;;;;;;4987803;28;20517;-47
2022/07/23 06:21:42;;;;;;;9.00;8.10;;;24.00;54.40;;;;;;4995615;28;20470;-47
2022/07/23 06:24:15;;;;;;;10.70;9.60;;;24.00;54.60;;;;;;4971083;28;20546;-45
2022/07/23 06:26:44;;;;;;;12.67;10.17;;;24.00;55.00;;;;;;4985621;28;20488;-48
2022/07/23 06:29:13;;;;;;;10.00;9.00;;;23.90;55.10;;;;;;4982337;28;20945;-48
2022/07/23 06:31:42;;;;;;;12.30;11.07;;;24.00;55.10;;;;;;4964623;28;20986;-48
2022/07/23 06:34:11;;;;;;;12.23;11.00;;;24.00;55.60;;;;;;4983153;28;20449;-47
2022/07/23 06:36:40;;;;;;;12.93;11.63;;;23.90;55.80;;;;;;4973729;28;20480;-48
2022/07/23 06:39:10;;;;;;;11.80;8.67;;;23.90;55.60;;;;;;4988295;28;20438;-48
2022/07/23 06:41:39;;;;;;;17.23;14.70;;;23.90;55.80;;;;;;5002041;28;20446;-47
2022/07/23 06:44:07;;;;;;;14.90;13.50;;;23.80;56.70;;;;;;4987654;28;20195;-49
2022/07/23 06:46:37;;;;;;;15.37;13.77;;;23.80;56.80;;;;;;4980961;28;20469;-48
2022/07/23 06:49:06;;;;;;;21.00;17.80;;;23.80;56.60;;;;;;4963066;28;20485;-48
2022/07/23 06:51:35;;;;;;;15.73;13.37;;;23.80;57.60;;;;;;4985907;28;20548;-47
2022/07/23 06:54:04;;;;;;;14.27;12.77;;;23.80;57.30;;;;;;4981557;28;20513;-45
2022/07/23 06:56:33;;;;;;;12.00;10.60;;;23.80;57.30;;;;;;4977997;28;20526;-49
2022/07/23 06:59:01;;;;;;;13.00;11.77;;;23.80;57.10;;;;;;5001598;28;20474;-48
2022/07/23 07:01:30;;;;;;;12.53;11.23;;;23.80;56.90;;;;;;4984858;28;20519;-51
2022/07/23 07:03:59;;;;;;;12.03;10.40;;;23.80;56.70;;;;;;4983758;28;20862;-46
2022/07/23 07:06:27;;;;;;;12.27;11.17;;;23.80;56.70;;;;;;4979766;28;20454;-47
2022/07/23 07:08:56;;;;;;;12.90;11.20;;;23.80;56.70;;;;;;4988111;28;20537;-47
2022/07/23 07:11:25;;;;;;;10.43;9.33;;;23.80;56.70;;;;;;4990223;28;20465;-46
2022/07/23 07:13:54;;;;;;;11.13;10.07;;;23.80;56.70;;;;;;4976871;28;20442;-47
2022/07/23 07:16:23;;;;;;;11.47;10.33;;;23.90;56.70;;;;;;4986648;28;20996;-47
2022/07/23 07:18:59;;;;;;;12.13;10.93;;;23.90;56.90;;;;;;4985973;28;20441;-45
2022/07/23 07:21:28;;;;;;;11.40;10.27;;;23.90;56.90;;;;;;4979114;28;20529;-47
2022/07/23 07:23:58;;;;;;;14.47;10.83;;;23.90;57.10;;;;;;4983624;28;20455;-46
2022/07/23 07:26:27;;;;;;;11.27;10.10;;;23.90;57.10;;;;;;4986066;28;20462;-46
2022/07/23 07:28:55;;;;;;;11.03;9.90;;;23.90;57.10;;;;;;4981140;28;20438;-48
2022/07/23 07:31:23;;;;;;;10.50;9.40;;;23.90;57.00;;;;;;4983041;28;20997;-49
2022/07/23 07:33:52;;;;;;;10.20;9.30;;;23.90;57.00;;;;;;4980013;28;20886;-48
2022/07/23 07:36:21;;;;;;;10.43;9.33;;;23.90;56.80;;;;;;4986199;28;20564;-47
2022/07/23 07:38:50;;;;;;;10.57;9.43;;;23.90;56.70;;;;;;4986129;28;20527;-48
2022/07/23 07:41:22;;;;;;;10.80;8.90;;;23.90;56.70;;;;;;4985992;28;20830;-49
2022/07/23 07:43:51;;;;;;;10.37;9.17;;;23.90;56.50;;;;;;4986142;28;20868;-47
2022/07/23 07:46:22;;;;;;;9.17;8.40;;;23.90;56.50;;;;;;4981883;28;20473;-50
2022/07/23 07:48:50;;;;;;;13.77;12.37;;;23.90;56.50;;;;;;4988707;28;20457;-46
2022/07/23 07:51:27;;;;;;;13.40;11.90;;;23.80;56.60;;;;;;4985162;28;20996;-46
2022/07/23 07:53:55;;;;;;;12.87;10.90;;;23.70;57.20;;;;;;4980773;28;20861;-46
2022/07/23 07:56:24;;;;;;;15.50;11.47;;;23.70;57.80;;;;;;4981150;28;20457;-51
2022/07/23 07:58:53;;;;;;;14.53;12.00;;;23.60;58.20;;;;;;4989072;28;20455;-47
2022/07/23 08:01:22;;;;;;;14.10;12.20;;;23.60;59.50;;;;;;4985026;28;20977;-46
2022/07/23 08:03:50;;;;;;;14.53;12.97;;;23.50;59.40;;;;;;4982694;28;20438;-47
2022/07/23 08:06:19;;;;;;;14.57;13.07;;;23.50;59.10;;;;;;4986116;28;20458;-46
2022/07/23 08:08:50;;;;;;;12.80;11.70;;;23.50;59.60;;;;;;4982440;28;20450;-48
2022/07/23 08:11:18;;;;;;;15.07;13.67;;;23.40;59.90;;;;;;4973219;28;20497;-49
2022/07/23 08:13:47;;;;;;;18.00;16.30;;;23.40;59.70;;;;;;4987148;28;20451;-49
2022/07/23 08:16:15;;;;;;;16.63;15.00;;;23.40;59.20;;;;;;4981279;28;20458;-48
2022/07/23 08:18:44;;;;;;;19.37;16.63;;;23.40;59.40;;;;;;4987124;28;20519;-50
2022/07/23 08:21:12;;;;;;;14.90;13.40;;;23.40;59.60;;;;;;4986236;28;20525;-47
2022/07/23 08:23:41;;;;;;;15.57;13.93;;;23.30;59.70;;;;;;4987715;28;20449;-48
2022/07/23 08:26:12;;;;;;;14.33;11.20;;;23.20;61.50;;;;;;4988533;28;20461;-47
2022/07/23 08:28:41;;;;;;;11.67;10.57;;;23.20;60.90;;;;;;4981145;28;20450;-48
2022/07/23 08:31:11;;;;;;;13.37;11.30;;;23.20;60.90;;;;;;4988603;28;21198;-48
2022/07/23 08:33:39;;;;;;;12.63;11.30;;;23.20;60.50;;;;;;5003135;23;20829;-46
2022/07/23 08:36:08;;;;;;;12.30;11.10;;;23.20;60.50;;;;;;4996087;28;20539;-49
2022/07/23 08:38:37;;;;;;;15.07;13.10;;;23.20;60.80;;;;;;5026417;28;20945;-49
2022/07/23 08:41:08;;;;;;;14.37;12.97;;;23.20;61.50;;;;;;5016433;28;20841;-49
2022/07/23 08:43:40;;;;;;;13.50;12.20;;;23.20;61.50;;;;;;5012325;28;20528;-48
2022/07/23 08:46:10;;;;;;;12.13;10.57;;;23.20;60.80;;;;;;5024775;28;20463;-48
2022/07/23 08:48:38;;;;;;;11.83;10.53;;;23.20;60.50;;;;;;5017506;28;20455;-49
2022/07/23 08:51:10;;;;;;;13.27;11.97;;;23.20;60.70;;;;;;5022066;28;20448;-48
2022/07/23 08:53:40;;;;;;;11.90;10.67;;;23.20;60.90;;;;;;5013613;28;20449;-48
2022/07/23 08:56:09;;;;;;;12.77;11.40;;;23.20;60.70;;;;;;5016125;28;20560;-48
2022/07/23 08:58:39;;;;;;;13.57;12.27;;;23.20;60.50;;;;;;5006734;28;20463;-48
2022/07/23 09:01:07;;;;;;;13.93;12.43;;;23.20;60.60;;;;;;5009533;28;20444;-49
2022/07/23 09:03:39;;;;;;;13.27;12.07;;;23.20;61.50;;;;;;5019678;28;20957;-47
2022/07/23 09:06:08;;;;;;;12.47;10.93;;;23.20;60.00;;;;;;4998257;28;20453;-47
2022/07/23 09:08:38;;;;;;;11.77;10.57;;;23.20;60.10;;;;;;5013016;28;20959;-49
2022/07/23 09:11:09;;;;;;;13.40;10.80;;;23.20;60.10;;;;;;5021724;28;20432;-48
2022/07/23 09:13:43;;;;;;;11.13;10.17;;;23.20;60.20;;;;;;5009972;28;20495;-48
2022/07/23 09:16:13;;;;;;;9.97;8.83;;;23.20;59.30;;;;;;5016346;28;20542;-48
2022/07/23 09:18:45;;;;;;;11.90;10.80;;;23.20;59.20;;;;;;5022954;28;20474;-48
2022/07/23 09:21:20;;;;;;;12.20;11.10;;;23.20;59.60;;;;;;5008650;28;20535;-47
2022/07/23 09:23:52;;;;;;;9.83;8.93;;;23.20;59.90;;;;;;5016915;28;20535;-48
2022/07/23 09:26:31;;;;;;;10.83;9.73;;;23.20;59.80;;;;;;5017819;28;20566;-48
2022/07/23 09:29:09;;;;;;;10.40;9.53;;;23.20;60.20;;;;;;5013398;28;20440;-49
2022/07/23 09:31:45;;;;;;;9.67;8.77;;;23.20;60.80;;;;;;5005689;28;20514;-49
2022/07/23 09:34:17;;;;;;;10.43;9.30;;;23.30;60.70;;;;;;5011316;28;20449;-49
2022/07/23 09:36:48;;;;;;;7.50;6.90;;;23.40;60.40;;;;;;5008737;28;20480;-49
2022/07/23 09:39:27;;;;;;;7.40;6.80;;;23.40;59.90;;;;;;5008814;28;20518;-49
2022/07/23 09:41:56;;;;;;;7.00;6.50;;;23.40;59.60;;;;;;5010249;28;20923;-49
2022/07/23 09:44:26;;;;;;;7.20;6.60;;;23.50;59.40;;;;;;5012039;28;20437;-49
2022/07/23 09:47:01;;;;;;;6.87;6.10;;;23.50;59.30;;;;;;5021181;28;20514;-48
2022/07/23 09:49:30;;;;;;;7.03;6.53;;;23.50;59.10;;;;;;5015593;28;20461;-49
2022/07/23 09:52:01;;;;;;;7.07;6.47;;;23.50;59.10;;;;;;5013161;28;20469;-48
2022/07/23 09:54:36;;;;;;;6.57;6.07;;;23.50;58.90;;;;;;5026173;28;20982;-52
2022/07/23 09:57:07;;;;;;;8.33;7.63;;;23.50;58.60;;;;;;5011346;28;20556;-51
2022/07/23 09:59:40;;;;;;;7.70;7.10;;;23.60;59.40;;;;;;5010671;28;20472;-51
2022/07/23 10:02:11;;;;;;;12.10;8.40;;;23.70;57.90;;;;;;4997636;28;20465;-51
2022/07/23 10:04:55;;;;;;;7.00;6.40;;;23.70;57.50;;;;;;4992491;28;20452;-50
2022/07/23 10:07:35;;;;;;;6.83;6.23;;;23.80;57.40;;;;;;5035455;28;20469;-51
2022/07/23 10:10:22;;;;;;;9.60;8.60;;;23.80;57.30;;;;;;5014302;28;20438;-48
2022/07/23 10:16:09;;;;;;;6.53;6.03;;;23.80;57.30;;;;;;5009188;28;20446;-49
2022/07/23 10:18:38;;;;;;;6.90;6.17;;;23.80;57.50;;;;;;5015686;28;21073;-49
2022/07/23 10:21:15;;;;;;;6.67;6.03;;;23.80;57.50;;;;;;5012877;28;20521;-49
2022/07/23 10:23:51;;;;;;;5.83;5.43;;;23.70;57.50;;;;;;5001286;28;20441;-48
2022/07/23 10:26:30;;;;;;;5.50;5.07;;;23.70;57.50;;;;;;5005634;28;20472;-48
2022/07/23 10:29:09;;;;;;;6.43;5.83;;;23.70;57.50;;;;;;4987060;28;20504;-49
2022/07/23 10:31:53;;;;;;;5.67;5.13;;;23.70;57.50;;;;;;5012968;28;21076;-48
2022/07/23 10:34:39;;;;;;;7.33;6.10;;;23.70;57.50;;;;;;5024560;28;20464;-47
2022/07/23 10:37:17;;;;;;;8.63;7.73;;;23.70;57.20;;;;;;4997984;28;20483;-45
2022/07/23 10:40:09;;;;;;;6.53;5.93;;;23.80;56.70;;;;;;4990617;28;20469;-47
2022/07/23 10:42:42;;;;;;;6.17;5.67;;;23.80;56.70;;;;;;5014581;28;20470;-47
2022/07/23 10:45:31;;;;;;;6.20;5.80;;;23.80;56.60;;;;;;5007011;28;20456;-47
2022/07/23 10:48:15;;;;;;;6.57;6.00;;;23.90;56.50;;;;;;5010224;28;20548;-47
2022/07/23 10:51:09;;;;;;;6.50;5.70;;;23.90;56.70;;;;;;5008432;28;20441;-48
2022/07/23 10:53:58;;;;;;;8.17;6.43;;;23.90;56.70;;;;;;5006826;28;20552;-48
2022/07/23 10:56:51;;;;;;;5.50;5.10;;;23.90;56.70;;;;;;5005064;28;20606;-48
2022/07/23 10:59:27;;;;;;;8.60;5.67;;;23.80;56.50;;;;;;5007264;28;20519;-49
2022/07/23 11:02:21;;;;;;;5.37;4.97;;;23.80;57.90;;;;;;5008356;28;20476;-48
2022/07/23 11:04:54;;;;;;;6.00;5.60;;;23.80;56.70;;;;;;4998483;28;20889;-48
2022/07/23 11:07:23;;;;;;;9.57;5.57;;;23.80;56.70;;;;;;5008013;28;20471;-47
2022/07/23 11:09:51;;;;;;;7.70;6.47;;;23.80;56.70;;;;;;5006556;28;20507;-48
2022/07/23 11:12:38;;;;;;;9.53;6.63;;;23.80;55.70;;;;;;5008550;28;20464;-48
2022/07/23 11:15:09;;;;;;;7.43;6.67;;;23.70;54.30;;;;;;5017381;28;20444;-49
2022/07/23 11:18:00;;;;;;;6.73;6.03;;;23.70;54.30;;;;;;5012342;28;20480;-49
2022/07/23 11:20:30;;;;;;;5.80;5.30;;;23.70;55.00;;;;;;5013296;28;20440;-48
2022/07/23 11:23:03;;;;;;;5.63;5.13;;;23.70;55.30;;;;;;5005074;28;20469;-50
2022/07/23 11:25:35;;;;;;;5.57;5.07;;;23.70;55.50;;;;;;5030396;28;20451;-48
2022/07/23 11:28:11;;;;;;;5.37;4.87;;;23.70;55.30;;;;;;5019566;28;20557;-48
2022/07/23 11:30:42;;;;;;;5.00;4.60;;;23.70;55.50;;;;;;5005379;28;20448;-49
2022/07/23 11:33:18;;;;;;;4.87;4.47;;;23.80;55.50;;;;;;5006920;28;20535;-48
2022/07/23 11:35:51;;;;;;;4.33;4.03;;;23.80;55.50;;;;;;5017120;28;20459;-48
2022/07/23 11:38:21;;;;;;;6.10;5.27;;;23.80;56.80;;;;;;5022372;28;20459;-48
2022/07/23 11:40:51;;;;;;;4.60;4.20;;;23.80;55.60;;;;;;5011655;28;20457;-47
2022/07/23 11:43:21;;;;;;;8.00;4.20;;;23.80;55.60;;;;;;5007631;28;20480;-48
2022/07/23 11:45:51;;;;;;;4.50;4.10;;;23.80;55.60;;;;;;5018149;28;20476;-48
2022/07/23 11:48:22;;;;;;;5.10;4.70;;;23.80;55.60;;;;;;5008384;28;20575;-48
2022/07/23 11:50:53;;;;;;;5.67;5.17;;;23.80;55.70;;;;;;5005622;28;20448;-47
2022/07/23 11:53:28;;;;;;;4.77;4.37;;;23.80;55.70;;;;;;5010172;28;20483;-48
2022/07/23 11:56:04;;;;;;;5.53;5.03;;;23.80;55.40;;;;;;5026667;28;20531;-48
2022/07/23 11:58:32;;;;;;;4.90;4.50;;;23.90;56.70;;;;;;5009393;28;20586;-48
2022/07/23 12:01:01;;;;;;;10.43;4.93;;;23.90;55.50;;;;;;5018940;28;20528;-48
2022/07/23 12:03:31;;;;;;;4.97;4.30;;;23.90;55.80;;;;;;5010168;28;20212;-49
2022/07/23 12:06:01;;;;;;;8.23;4.73;;;23.90;55.70;;;;;;5015001;28;20511;-48
2022/07/23 12:08:29;;;;;;;4.93;4.63;;;23.90;55.60;;;;;;5024813;28;20896;-49
2022/07/23 12:10:58;;;;;;;5.23;4.73;;;23.90;55.60;;;;;;5010999;28;20440;-48
2022/07/23 12:13:26;;;;;;;4.30;4.00;;;23.90;55.60;;;;;;5021155;28;20958;-48
2022/07/23 12:15:58;;;;;;;5.60;4.37;;;23.90;55.60;;;;;;5010433;28;20495;-48
2022/07/23 12:18:27;;;;;;;4.57;4.17;;;23.90;55.60;;;;;;5024511;28;20424;-47
2022/07/23 12:20:58;;;;;;;4.33;3.90;;;23.90;55.60;;;;;;5023583;28;20645;-49
2022/07/23 12:23:28;;;;;;;4.10;3.70;;;23.90;55.80;;;;;;5024890;28;20837;-48
2022/07/23 12:26:02;;;;;;;4.20;3.90;;;23.90;55.70;;;;;;5022863;28;20438;-48
2022/07/23 12:28:33;;;;;;;4.20;3.90;;;23.90;55.70;;;;;;5025242;28;20442;-47
2022/07/23 12:31:01;;;;;;;5.00;3.87;;;23.90;55.70;;;;;;5015460;28;20451;-49
2022/07/23 12:33:32;;;;;;;4.87;4.37;;;23.90;55.60;;;;;;5019431;28;20447;-48
2022/07/23 12:36:04;;;;;;;4.63;4.20;;;23.90;55.60;;;;;;5017480;28;22166;-49
2022/07/23 12:38:41;;;;;;;5.30;4.40;;;23.90;55.60;;;;;;5004270;28;20449;-49
2022/07/23 12:41:10;;;;;;;3.87;3.57;;;23.90;55.60;;;;;;5025053;28;20467;-49
2022/07/23 12:43:39;;;;;;;4.50;4.10;;;23.90;55.60;;;;;;5021678;28;20429;-49
2022/07/23 12:46:09;;;;;;;4.43;4.03;;;23.90;55.50;;;;;;5016536;28;20465;-48
2022/07/23 12:48:39;;;;;;;4.33;4.03;;;23.90;55.50;;;;;;5009752;28;20444;-48
2022/07/23 12:51:09;;;;;;;5.20;4.00;;;23.90;55.50;;;;;;5017102;28;21087;-48
2022/07/23 12:58:07;;;;;;;4.10;3.80;;;24.00;54.80;;;;;;5076329;27;20803;-48
2022/07/23 13:01:06;;;;;;;5.00;4.60;;;24.10;56.00;;;;;;5026866;28;20451;-47
2022/07/23 13:03:38;;;;;;;3.77;3.47;;;24.10;55.70;;;;;;4976450;28;20594;-49
2022/07/23 13:06:11;;;;;;;4.57;4.17;;;24.10;55.70;;;;;;5019985;28;20439;-48
2022/07/23 13:08:41;;;;;;;4.90;4.50;;;24.00;55.60;;;;;;5058282;28;20463;-49
2022/07/23 13:11:09;;;;;;;3.90;3.60;;;24.00;56.70;;;;;;5044199;28;20945;-48